createdAt,value
2024-02-16T00:02:06.752Z,85.10
2024-02-16T00:04:33.603Z,85.10
2024-02-16T00:07:00.643Z,85.10
2024-02-16T00:09:28.576Z,85.10
2024-02-16T00:11:56.144Z,85.10
2024-02-16T00:14:23.095Z,85.10
2024-02-16T00:16:50.153Z,85.10
2024-02-16T00:19:17.196Z,85.10
2024-02-16T00:21:44.287Z,85.10
2024-02-16T00:24:11.432Z,85.10
2024-02-16T00:26:40.723Z,85.10
2024-02-16T00:29:07.918Z,85.10
2024-02-16T00:31:34.918Z,84.90
2024-02-16T00:34:02.010Z,85.30
2024-02-16T00:36:29.563Z,85.30
2024-02-16T00:38:56.596Z,85.30
2024-02-16T00:41:24.164Z,85.30
2024-02-16T00:43:52.900Z,85.30
2024-02-16T00:46:19.830Z,85.30
2024-02-16T00:48:47.958Z,85.30
2024-02-16T00:51:15.459Z,85.30
2024-02-16T00:53:42.393Z,85.30
2024-02-16T00:56:09.897Z,85.30
2024-02-16T00:58:37.659Z,85.30
2024-02-16T01:01:05.325Z,85.30
2024-02-16T01:03:32.345Z,85.20
2024-02-16T01:05:59.247Z,85.20
2024-02-16T01:08:28.518Z,85.20
2024-02-16T01:10:55.580Z,85.10
2024-02-16T01:13:22.619Z,85.10
2024-02-16T01:15:49.451Z,85.10
2024-02-16T01:18:16.893Z,85.10
2024-02-16T01:20:43.998Z,85.20
2024-02-16T01:23:10.816Z,85.10
2024-02-16T01:25:37.668Z,85.10
2024-02-16T01:28:04.774Z,85.10
2024-02-16T01:30:31.758Z,85.10
2024-02-16T01:32:58.819Z,85.00
2024-02-16T01:35:25.688Z,85.10
2024-02-16T01:37:52.522Z,85.00
2024-02-16T01:40:19.516Z,85.00
2024-02-16T01:42:47.864Z,85.00
2024-02-16T01:45:15.089Z,85.00
2024-02-16T01:47:43.944Z,85.00
2024-02-16T01:50:11.497Z,85.10
2024-02-16T01:52:39.072Z,85.00
2024-02-16T01:55:10.107Z,85.00
2024-02-16T01:57:56.245Z,85.00
2024-02-16T02:00:23.304Z,84.90
2024-02-16T02:02:50.366Z,85.00
2024-02-16T02:05:17.460Z,85.00
2024-02-16T02:07:44.626Z,85.00
2024-02-16T02:10:15.210Z,85.00
2024-02-16T02:12:43.838Z,85.00
2024-02-16T02:15:11.064Z,85.00
2024-02-16T02:17:38.135Z,85.00
2024-02-16T02:20:08.120Z,85.00
2024-02-16T02:22:35.085Z,85.00
2024-02-16T02:25:01.928Z,85.00
2024-02-16T02:27:29.162Z,84.90
2024-02-16T02:29:56.122Z,85.00
2024-02-16T02:32:22.930Z,85.00
2024-02-16T02:34:49.950Z,85.00
2024-02-16T02:37:17.078Z,85.00
2024-02-16T02:39:45.254Z,85.00
2024-02-16T02:42:12.180Z,85.00
2024-02-16T02:44:39.126Z,85.00
2024-02-16T02:47:06.279Z,85.00
2024-02-16T02:49:36.229Z,85.00
2024-02-16T02:52:03.657Z,85.00
2024-02-16T02:54:30.500Z,85.00
2024-02-16T02:56:58.486Z,85.00
2024-02-16T02:59:25.443Z,85.00
2024-02-16T03:01:52.289Z,85.00
2024-02-16T03:04:19.191Z,85.00
2024-02-16T03:06:46.204Z,85.00
2024-02-16T03:09:13.833Z,85.00
2024-02-16T03:11:41.140Z,85.00
2024-02-16T03:14:09.129Z,85.00
2024-02-16T03:16:36.133Z,85.00
2024-02-16T03:19:03.123Z,85.00
2024-02-16T03:21:30.155Z,85.00
2024-02-16T03:23:57.050Z,85.00
2024-02-16T03:26:23.842Z,85.00
2024-02-16T03:28:51.100Z,84.90
2024-02-16T03:31:23.214Z,85.50
2024-02-16T03:33:51.010Z,84.90
2024-02-16T03:36:18.637Z,84.90
2024-02-16T03:38:46.134Z,85.00
2024-02-16T03:41:17.476Z,85.00
2024-02-16T03:43:44.391Z,85.00
2024-02-16T03:46:11.675Z,84.90
2024-02-16T03:48:40.569Z,84.90
2024-02-16T03:51:08.069Z,85.00
2024-02-16T03:53:35.317Z,85.00
2024-02-16T03:56:02.180Z,85.00
2024-02-16T03:58:29.050Z,84.90
2024-02-16T04:00:56.027Z,85.10
2024-02-16T04:03:22.907Z,85.60
2024-02-16T04:05:49.826Z,85.00
2024-02-16T04:08:16.713Z,85.10
2024-02-16T04:10:43.523Z,85.00
2024-02-16T04:13:10.372Z,85.00
2024-02-16T04:15:37.302Z,85.00
2024-02-16T04:18:04.478Z,85.00
2024-02-16T04:20:31.608Z,85.00
2024-02-16T04:22:58.432Z,85.00
2024-02-16T04:25:25.259Z,85.00
2024-02-16T04:27:52.144Z,85.00
2024-02-16T04:30:19.068Z,85.00
2024-02-16T04:32:45.942Z,84.90
2024-02-16T04:35:13.269Z,85.00
2024-02-16T04:37:40.680Z,85.00
2024-02-16T04:40:08.034Z,85.00
2024-02-16T04:42:35.319Z,85.00
2024-02-16T04:45:05.270Z,85.00
2024-02-16T04:47:33.458Z,85.00
2024-02-16T04:50:00.825Z,85.00
2024-02-16T04:52:30.345Z,85.00
2024-02-16T04:54:57.696Z,85.00
2024-02-16T04:57:24.611Z,85.00
2024-02-16T04:59:51.458Z,85.00
2024-02-16T05:02:18.302Z,85.00
2024-02-16T05:04:45.136Z,85.00
2024-02-16T05:07:12.028Z,85.00
2024-02-16T05:09:40.893Z,85.00
2024-02-16T05:12:09.800Z,85.00
2024-02-16T05:14:37.339Z,85.00
2024-02-16T05:17:04.609Z,84.90
2024-02-16T05:19:35.962Z,85.00
2024-02-16T05:22:03.029Z,85.00
2024-02-16T05:24:29.936Z,84.90
2024-02-16T05:26:57.045Z,84.90
2024-02-16T05:29:24.968Z,84.90
2024-02-16T05:31:54.645Z,84.90
2024-02-16T05:34:21.785Z,84.90
2024-02-16T05:36:48.925Z,84.90
2024-02-16T05:39:27.353Z,84.90
2024-02-16T05:41:54.977Z,84.90
2024-02-16T05:44:21.859Z,84.90
2024-02-16T05:46:49.005Z,84.90
2024-02-16T05:49:19.232Z,84.90
2024-02-16T05:52:06.421Z,85.00
2024-02-16T05:54:35.999Z,85.00
2024-02-16T05:57:05.429Z,85.10
2024-02-16T05:59:32.272Z,85.20
2024-02-16T06:01:59.767Z,85.10
2024-02-16T06:04:27.600Z,85.20
2024-02-16T06:06:55.446Z,85.20
2024-02-16T06:09:22.399Z,85.20
2024-02-16T06:11:49.907Z,85.20
2024-02-16T06:14:20.182Z,85.20
2024-02-16T06:16:47.328Z,85.10
2024-02-16T06:19:14.420Z,85.10
2024-02-16T06:21:41.337Z,85.10
2024-02-16T06:24:09.024Z,85.10
2024-02-16T06:26:35.930Z,85.10
2024-02-16T06:29:02.728Z,85.10
2024-02-16T06:31:29.500Z,85.10
2024-02-16T06:33:56.784Z,85.00
2024-02-16T06:36:24.349Z,85.00
2024-02-16T06:38:52.839Z,84.90
2024-02-16T06:41:19.781Z,85.00
2024-02-16T06:43:46.554Z,85.00
2024-02-16T06:46:13.360Z,85.00
2024-02-16T06:48:40.264Z,85.00
2024-02-16T06:51:09.788Z,85.00
2024-02-16T06:53:38.198Z,85.00
2024-02-16T06:56:05.364Z,85.00
2024-02-16T06:58:32.175Z,84.90
2024-02-16T07:01:04.244Z,84.90
2024-02-16T07:03:31.388Z,84.90
2024-02-16T07:05:58.364Z,85.00
2024-02-16T07:08:26.987Z,84.90
2024-02-16T07:10:54.134Z,85.50
2024-02-16T07:13:21.056Z,85.00
2024-02-16T07:15:47.855Z,84.90
2024-02-16T07:18:15.261Z,85.00
2024-02-16T07:20:42.149Z,85.00
2024-02-16T07:23:10.616Z,85.00
2024-02-16T07:25:37.556Z,85.00
2024-02-16T07:28:04.518Z,84.90
2024-02-16T07:30:39.761Z,84.90
2024-02-16T07:33:10.199Z,84.90
2024-02-16T07:35:37.249Z,84.80
2024-02-16T07:38:04.316Z,84.70
2024-02-16T07:40:31.924Z,84.60
2024-02-16T07:42:58.845Z,84.50
2024-02-16T07:45:25.778Z,84.50
2024-02-16T07:47:52.979Z,84.40
2024-02-16T07:50:21.748Z,84.40
2024-02-16T07:52:49.361Z,84.40
2024-02-16T07:55:18.453Z,84.40
2024-02-16T07:57:46.230Z,84.40
2024-02-16T08:00:13.728Z,84.50
2024-02-16T08:02:41.150Z,84.50
2024-02-16T08:05:09.239Z,84.50
2024-02-16T08:07:36.343Z,84.50
2024-02-16T08:10:03.801Z,84.60
2024-02-16T08:12:32.830Z,84.60
2024-02-16T08:15:00.676Z,84.60
2024-02-16T08:17:27.866Z,84.60
2024-02-16T08:19:55.667Z,85.30
2024-02-16T08:22:22.771Z,84.60
2024-02-16T08:24:51.051Z,84.60
2024-02-16T08:27:18.157Z,84.70
2024-02-16T08:29:45.238Z,84.80
2024-02-16T08:32:12.099Z,84.80
2024-02-16T08:34:39.533Z,84.80
2024-02-16T08:37:07.140Z,84.70
2024-02-16T08:39:35.834Z,84.70
2024-02-16T08:42:04.286Z,84.70
2024-02-16T08:44:31.292Z,84.70
2024-02-16T08:46:58.157Z,84.80
2024-02-16T08:49:25.120Z,84.90
2024-02-16T08:51:52.141Z,84.90
2024-02-16T08:54:19.884Z,85.00
2024-02-16T08:56:47.334Z,85.10
2024-02-16T08:59:14.109Z,85.10
2024-02-16T09:01:41.383Z,85.80
2024-02-16T09:04:08.494Z,85.30
2024-02-16T09:06:39.819Z,85.30
2024-02-16T09:09:08.743Z,85.40
2024-02-16T09:11:35.696Z,85.40
2024-02-16T09:14:02.534Z,85.40
2024-02-16T09:16:29.358Z,85.40
2024-02-16T09:18:56.353Z,85.40
2024-02-16T09:21:25.260Z,85.50
2024-02-16T09:23:52.174Z,85.50
2024-02-16T09:26:19.308Z,85.50
2024-02-16T09:28:46.223Z,85.50
2024-02-16T09:31:16.462Z,85.50
2024-02-16T09:33:43.441Z,85.60
2024-02-16T09:36:10.608Z,85.50
2024-02-16T09:38:37.593Z,85.60
2024-02-16T09:41:04.733Z,85.60
2024-02-16T09:43:31.841Z,85.60
2024-02-16T09:46:00.824Z,85.60
2024-02-16T09:48:28.780Z,85.70
2024-02-16T09:50:57.930Z,85.70
2024-02-16T09:53:29.194Z,85.60
2024-02-16T09:55:56.249Z,85.60
2024-02-16T09:58:23.343Z,85.60
2024-02-16T10:00:58.443Z,85.50
2024-02-16T10:03:29.731Z,85.50
2024-02-16T10:06:13.125Z,85.50
2024-02-16T10:08:53.484Z,85.50
2024-02-16T10:14:07.226Z,85.40
2024-02-16T10:16:34.031Z,85.30
2024-02-16T10:19:13.152Z,85.20
2024-02-16T10:21:42.007Z,85.30
2024-02-16T10:24:10.794Z,85.40
2024-02-16T10:26:38.869Z,85.40
2024-02-16T10:29:10.865Z,85.30
2024-02-16T10:31:38.077Z,85.30
2024-02-16T10:34:10.670Z,85.40
2024-02-16T10:36:38.647Z,85.40
2024-02-16T10:39:07.015Z,85.50
2024-02-16T10:41:44.033Z,85.60
2024-02-16T10:44:11.601Z,85.60
2024-02-16T10:46:38.491Z,85.70
2024-02-16T10:49:07.190Z,85.70
2024-02-16T10:51:45.396Z,85.80
2024-02-16T10:54:15.531Z,85.80
2024-02-16T10:56:42.521Z,85.90
2024-02-16T10:59:10.814Z,86.00
2024-02-16T11:01:41.981Z,86.10
2024-02-16T11:07:12.427Z,86.10
2024-02-16T11:09:40.961Z,86.20
2024-02-16T11:12:13.353Z,86.30
2024-02-16T11:14:41.632Z,86.30
2024-02-16T11:17:24.001Z,86.30
2024-02-16T11:19:51.555Z,86.10
2024-02-16T11:22:22.127Z,86.20
2024-02-16T11:24:50.562Z,86.20
2024-02-16T11:27:22.593Z,86.30
2024-02-16T11:29:50.626Z,86.20
2024-02-16T11:32:19.717Z,86.30
2024-02-16T11:34:46.602Z,86.20
2024-02-16T11:37:15.024Z,86.30
2024-02-16T11:39:45.978Z,86.40
2024-02-16T11:42:14.874Z,86.40
2024-02-16T11:44:52.160Z,86.50
2024-02-16T11:47:29.868Z,86.40
2024-02-16T11:50:12.824Z,86.50
2024-02-16T11:52:40.532Z,86.60
2024-02-16T11:55:11.925Z,86.70
2024-02-16T11:57:40.083Z,86.70
2024-02-16T12:00:12.389Z,86.70
2024-02-16T12:02:39.673Z,86.70
2024-02-16T12:05:07.290Z,86.70
2024-02-16T12:07:35.505Z,86.60
2024-02-16T12:10:06.323Z,86.80
2024-02-16T12:12:33.521Z,86.80
2024-02-16T12:15:00.949Z,86.80
2024-02-16T12:17:27.869Z,86.80
2024-02-16T12:19:55.930Z,86.80
2024-02-16T12:22:23.540Z,86.80
2024-02-16T12:24:51.777Z,86.80
2024-02-16T12:27:18.996Z,86.80
2024-02-16T12:29:45.939Z,86.80
2024-02-16T12:32:12.816Z,86.90
2024-02-16T12:34:39.776Z,86.80
2024-02-16T12:37:11.472Z,86.90
2024-02-16T12:39:39.183Z,86.90
2024-02-16T12:42:06.136Z,86.90
2024-02-16T12:44:33.021Z,86.90
2024-02-16T12:46:59.855Z,86.90
2024-02-16T12:49:27.170Z,86.90
2024-02-16T12:51:54.049Z,86.90
2024-02-16T12:54:20.852Z,86.90
2024-02-16T12:56:48.570Z,86.90
2024-02-16T12:59:15.676Z,87.10
2024-02-16T13:01:43.995Z,87.20
2024-02-16T13:04:10.964Z,87.30
2024-02-16T13:06:38.553Z,87.50
2024-02-16T13:09:06.636Z,87.50
2024-02-16T13:11:35.252Z,87.60
2024-02-16T13:14:02.187Z,87.60
2024-02-16T13:16:29.008Z,87.60
2024-02-16T13:18:55.886Z,87.70
2024-02-16T13:21:22.820Z,87.60
2024-02-16T13:23:49.673Z,87.50
2024-02-16T13:26:16.455Z,87.60
2024-02-16T13:28:43.408Z,87.60
2024-02-16T13:31:12.487Z,87.50
2024-02-16T13:33:39.473Z,87.50
2024-02-16T13:36:06.870Z,87.60
2024-02-16T13:38:33.686Z,87.50
2024-02-16T13:41:00.573Z,87.50
2024-02-16T13:43:27.766Z,87.30
2024-02-16T13:45:56.004Z,87.30
2024-02-16T13:48:23.421Z,87.20
2024-02-16T13:50:51.300Z,87.20
2024-02-16T13:53:21.545Z,87.20
2024-02-16T13:55:49.547Z,87.10
2024-02-16T13:58:16.725Z,87.10
2024-02-16T14:00:43.812Z,87.00
2024-02-16T14:03:12.105Z,86.80
2024-02-16T14:05:39.818Z,86.80
2024-02-16T14:08:09.221Z,86.70
2024-02-16T14:10:36.955Z,86.50
2024-02-16T14:13:04.322Z,86.40
2024-02-16T14:15:33.092Z,86.40
2024-02-16T14:18:06.210Z,86.40
2024-02-16T14:20:38.631Z,86.40
2024-02-16T14:23:08.776Z,86.30
2024-02-16T14:25:37.834Z,86.20
2024-02-16T14:28:05.368Z,86.10
2024-02-16T14:30:33.630Z,86.00
2024-02-16T14:33:01.246Z,86.00
2024-02-16T14:35:28.303Z,86.60
2024-02-16T14:37:55.123Z,86.00
2024-02-16T14:40:21.910Z,86.00
2024-02-16T14:42:49.419Z,85.90
2024-02-16T14:45:22.316Z,85.80
2024-02-16T14:47:49.809Z,85.70
2024-02-16T14:50:17.027Z,85.70
2024-02-16T14:52:46.444Z,85.70
2024-02-16T14:55:14.768Z,85.60
2024-02-16T14:57:42.873Z,85.60
2024-02-16T15:00:13.518Z,85.60
2024-02-16T15:02:42.435Z,85.60
2024-02-16T15:05:10.062Z,85.50
2024-02-16T15:07:36.936Z,85.50
2024-02-16T15:10:04.954Z,85.50
2024-02-16T15:12:32.547Z,85.50
2024-02-16T15:15:00.738Z,85.40
2024-02-16T15:17:28.043Z,85.50
2024-02-16T15:19:55.374Z,85.40
2024-02-16T15:22:22.762Z,85.40
2024-02-16T15:24:49.922Z,85.50
2024-02-16T15:27:16.816Z,85.40
2024-02-16T15:29:45.719Z,85.50
2024-02-16T15:32:12.568Z,85.40
2024-02-16T15:34:40.351Z,85.40
2024-02-16T15:37:07.276Z,85.50
2024-02-16T15:39:34.147Z,85.40
2024-02-16T15:42:01.068Z,85.40
2024-02-16T15:44:27.910Z,85.40
2024-02-16T15:46:55.948Z,85.40
2024-02-16T15:49:22.956Z,85.40
2024-02-16T15:51:49.999Z,85.40
2024-02-16T15:54:17.148Z,85.30
2024-02-16T15:56:43.974Z,85.30
2024-02-16T15:59:10.781Z,85.30
2024-02-16T16:01:38.118Z,85.20
2024-02-16T16:04:05.339Z,85.20
2024-02-16T16:06:32.332Z,85.20
2024-02-16T16:08:59.351Z,85.20
2024-02-16T16:11:26.285Z,85.20
2024-02-16T16:13:53.137Z,85.20
2024-02-16T16:16:19.955Z,85.20
2024-02-16T16:18:47.571Z,85.20
2024-02-16T16:21:14.689Z,85.20
2024-02-16T16:23:41.926Z,85.20
2024-02-16T16:26:08.840Z,85.20
2024-02-16T16:28:35.766Z,85.20
2024-02-16T16:31:02.742Z,85.20
2024-02-16T16:33:29.857Z,85.20
2024-02-16T16:35:57.014Z,85.10
2024-02-16T16:38:24.252Z,85.10
2024-02-16T16:40:51.036Z,85.80
2024-02-16T16:43:19.943Z,85.30
2024-02-16T16:45:46.818Z,85.30
2024-02-16T16:48:13.739Z,85.30
2024-02-16T16:50:41.155Z,85.40
2024-02-16T16:53:08.095Z,85.40
2024-02-16T16:55:34.945Z,85.30
2024-02-16T16:58:01.805Z,85.30
2024-02-16T17:00:28.831Z,85.20
2024-02-16T17:02:55.897Z,85.20
2024-02-16T17:05:22.876Z,85.10
2024-02-16T17:07:49.971Z,85.10
2024-02-16T17:10:17.330Z,85.10
2024-02-16T17:12:45.906Z,85.10
2024-02-16T17:15:19.851Z,85.10
2024-02-16T17:17:52.691Z,85.10
2024-02-16T17:20:25.279Z,85.10
2024-02-16T17:22:52.939Z,85.20
2024-02-16T17:25:20.947Z,85.20
2024-02-16T17:27:49.607Z,85.20
2024-02-16T17:30:20.604Z,85.20
2024-02-16T17:32:49.783Z,85.10
2024-02-16T17:35:17.644Z,85.20
2024-02-16T17:37:46.581Z,85.20
2024-02-16T17:40:13.795Z,85.20
2024-02-16T17:42:40.894Z,85.20
2024-02-16T17:45:08.441Z,85.30
2024-02-16T17:47:36.035Z,85.40
2024-02-16T17:50:04.065Z,85.40
2024-02-16T17:52:31.227Z,85.40
2024-02-16T17:55:05.539Z,85.40
2024-02-16T17:57:35.932Z,85.50
2024-02-16T18:00:06.377Z,85.50
2024-02-16T18:02:39.990Z,85.50
2024-02-16T18:05:10.013Z,85.50
2024-02-16T18:07:37.065Z,85.60
2024-02-16T18:10:07.193Z,85.50
2024-02-16T18:12:35.337Z,85.50
2024-02-16T18:15:02.419Z,85.50
2024-02-16T18:17:29.286Z,85.50
2024-02-16T18:19:56.442Z,85.60
2024-02-16T18:22:24.113Z,85.60
2024-02-16T18:24:51.058Z,85.70
2024-02-16T18:27:20.982Z,85.70
2024-02-16T18:29:48.662Z,85.70
2024-02-16T18:32:15.870Z,85.70
2024-02-16T18:34:44.593Z,85.70
2024-02-16T18:37:13.013Z,85.70
2024-02-16T18:39:40.248Z,85.70
2024-02-16T18:42:07.847Z,85.80
2024-02-16T18:44:34.767Z,85.80
2024-02-16T18:47:03.052Z,85.80
2024-02-16T18:49:30.044Z,85.70
2024-02-16T18:51:56.924Z,85.70
2024-02-16T18:54:23.815Z,85.70
2024-02-16T18:56:50.607Z,85.60
2024-02-16T18:59:17.433Z,85.60
2024-02-16T19:01:44.453Z,85.60
2024-02-16T19:04:11.736Z,85.60
2024-02-16T19:06:38.724Z,85.60
2024-02-16T19:09:05.697Z,85.60
2024-02-16T19:11:32.675Z,85.50
2024-02-16T19:13:59.693Z,85.50
2024-02-16T19:16:26.619Z,85.60
2024-02-16T19:18:53.542Z,85.50
2024-02-16T19:21:21.225Z,85.60
2024-02-16T19:23:48.349Z,85.50
2024-02-16T19:26:15.239Z,85.50
2024-02-16T19:28:42.052Z,85.50
2024-02-16T19:31:09.607Z,85.50
2024-02-16T19:33:37.702Z,85.50
2024-02-16T19:36:06.483Z,85.50
2024-02-16T19:38:34.398Z,85.50
2024-02-16T19:41:01.245Z,85.50
2024-02-16T19:43:29.659Z,85.50
2024-02-16T19:45:57.036Z,85.50
2024-02-16T19:48:24.243Z,85.50
2024-02-16T19:50:51.971Z,85.60
2024-02-16T19:53:19.305Z,85.60
2024-02-16T19:55:47.729Z,85.50
2024-02-16T19:58:14.721Z,85.50
2024-02-16T20:00:43.424Z,85.50
2024-02-16T20:03:10.531Z,85.50
2024-02-16T20:05:37.425Z,85.50
2024-02-16T20:08:05.507Z,85.50
2024-02-16T20:10:32.522Z,85.50
2024-02-16T20:12:59.350Z,85.40
2024-02-16T20:15:30.018Z,85.40
2024-02-16T20:17:58.167Z,85.40
2024-02-16T20:20:25.455Z,85.40
2024-02-16T20:22:52.371Z,85.40
2024-02-16T20:25:22.820Z,85.40
2024-02-16T20:27:54.073Z,85.40
2024-02-16T20:30:21.376Z,85.40
2024-02-16T20:32:51.646Z,85.30
2024-02-16T20:35:18.907Z,85.40
2024-02-16T20:37:46.796Z,85.30
2024-02-16T20:40:14.367Z,85.30
2024-02-16T20:42:41.700Z,85.40
2024-02-16T20:45:11.138Z,85.40
2024-02-16T20:47:38.091Z,85.40
2024-02-16T20:50:05.796Z,85.40
2024-02-16T20:52:32.825Z,85.30
2024-02-16T20:54:59.622Z,85.30
2024-02-16T20:57:26.514Z,85.30
2024-02-16T20:59:54.164Z,85.30
2024-02-16T21:02:21.131Z,85.30
2024-02-16T21:04:48.453Z,85.40
2024-02-16T21:07:15.648Z,85.30
2024-02-16T21:09:43.099Z,85.30
2024-02-16T21:12:10.624Z,85.30
2024-02-16T21:14:37.616Z,85.30
2024-02-16T21:17:04.759Z,85.20
2024-02-16T21:19:31.712Z,85.20
2024-02-16T21:21:58.649Z,85.20
2024-02-16T21:24:26.219Z,85.20
2024-02-16T21:26:53.264Z,85.30
2024-02-16T21:29:20.334Z,85.30
2024-02-16T21:31:48.366Z,85.30
2024-02-16T21:34:16.038Z,85.20
2024-02-16T21:36:44.197Z,85.20
2024-02-16T21:39:12.088Z,85.10
2024-02-16T21:41:39.581Z,85.10
2024-02-16T21:44:06.353Z,85.10
2024-02-16T21:46:35.441Z,85.10
2024-02-16T21:49:06.382Z,85.20
2024-02-16T21:51:35.949Z,85.20
2024-02-16T21:54:04.308Z,85.20
2024-02-16T21:56:31.139Z,85.30
2024-02-16T21:58:58.505Z,85.30
2024-02-16T22:01:26.736Z,85.30
2024-02-16T22:03:54.209Z,85.30
2024-02-16T22:06:25.793Z,85.30
2024-02-16T22:08:55.001Z,85.30
2024-02-16T22:11:23.087Z,85.30
2024-02-16T22:13:50.438Z,85.30
2024-02-16T22:16:19.029Z,85.30
2024-02-16T22:18:48.049Z,85.30
2024-02-16T22:21:15.922Z,85.30
2024-02-16T22:23:43.737Z,85.30
2024-02-16T22:26:10.992Z,85.30
2024-02-16T22:28:38.372Z,85.30
2024-02-16T22:31:05.604Z,85.30
2024-02-16T22:33:32.594Z,85.30
2024-02-16T22:36:00.332Z,85.30
2024-02-16T22:38:29.223Z,85.20
2024-02-16T22:40:56.207Z,85.30
2024-02-16T22:43:23.144Z,85.30
2024-02-16T22:45:51.322Z,85.30
2024-02-16T22:48:18.414Z,85.30
2024-02-16T22:50:46.422Z,85.30
2024-02-16T22:53:13.354Z,85.20
2024-02-16T22:55:40.206Z,85.20
2024-02-16T22:58:09.456Z,85.20
2024-02-16T23:00:41.544Z,85.20
2024-02-16T23:03:11.026Z,85.20
2024-02-16T23:05:38.514Z,85.30
2024-02-16T23:08:07.765Z,85.20
2024-02-16T23:10:38.874Z,85.20
2024-02-16T23:13:06.351Z,85.30
2024-02-16T23:15:36.215Z,85.30
2024-02-16T23:18:03.657Z,85.30
2024-02-16T23:20:31.367Z,85.20
2024-02-16T23:23:11.682Z,85.30
2024-02-16T23:25:48.093Z,85.20
2024-02-16T23:28:39.620Z,85.80
2024-02-16T23:31:06.641Z,85.30
2024-02-16T23:33:33.575Z,85.30
2024-02-16T23:36:00.570Z,85.40
2024-02-16T23:38:27.566Z,85.30
2024-02-16T23:40:54.355Z,85.30
2024-02-16T23:43:21.149Z,85.20
2024-02-16T23:45:48.129Z,85.20
2024-02-16T23:48:15.046Z,85.20
2024-02-16T23:50:41.923Z,85.10
2024-02-16T23:53:08.822Z,85.20
2024-02-16T23:55:35.653Z,85.10
2024-02-16T23:58:02.420Z,85.20
